Time;durP1;ratioP1;P1;durP2;ratioP2;P2;SDS_P1;SDS_P2;PMS_P1;PMS_P2;Temp;Humidity;BMP_temperature;BMP_pressure;BME280_temperature;BME280_humidity;BME280_pressure;Samples;Min_cycle;Max_cycle;Signal;HPM_P1;HPM_P2
2022/06/17 00:02:01;;;;;;;9.57;7.68;;;;;;;;;;5047202;28;20120;-70
2022/06/17 00:04:26;;;;;;;8.18;7.28;;;;;;;;;;5045634;28;20472;-70
2022/06/17 00:06:54;;;;;;;8.07;7.18;;;;;;;;;;5049673;28;20546;-70
2022/06/17 00:09:21;;;;;;;9.40;7.00;;;;;;;;;;5051757;28;20029;-70
2022/06/17 00:11:47;;;;;;;11.07;8.25;;;;;;;;;;5051298;28;20021;-70
2022/06/17 00:14:13;;;;;;;9.18;7.75;;;;;;;;;;5046825;28;20028;-70
2022/06/17 00:16:38;;;;;;;12.55;8.23;;;;;;;;;;5042256;28;20434;-70
2022/06/17 00:19:03;;;;;;;11.80;8.37;;;;;;;;;;5050660;28;20021;-70
2022/06/17 00:21:55;;;;;;;12.77;8.60;;;;;;;;;;5044562;28;20272;-70
2022/06/17 00:24:25;;;;;;;10.23;8.68;;;;;;;;;;5045996;28;20059;-70
2022/06/17 00:26:53;;;;;;;11.48;8.82;;;;;;;;;;5052253;28;20390;-70
2022/06/17 00:29:20;;;;;;;11.13;8.98;;;;;;;;;;5048546;28;20071;-69
2022/06/17 00:31:45;;;;;;;13.05;9.57;;;;;;;;;;5054395;28;20025;-70
2022/06/17 00:34:10;;;;;;;9.77;8.18;;;;;;;;;;5053142;28;20025;-70
2022/06/17 00:36:36;;;;;;;12.10;8.63;;;;;;;;;;5038197;28;20020;-70
2022/06/17 00:39:02;;;;;;;10.43;8.43;;;;;;;;;;5037604;28;20058;-70
2022/06/17 00:41:35;;;;;;;9.98;7.35;;;;;;;;;;5051512;28;20035;-70
2022/06/17 00:44:07;;;;;;;11.00;8.65;;;;;;;;;;5032612;28;20440;-70
2022/06/17 00:46:41;;;;;;;11.70;9.05;;;;;;;;;;5047488;28;20128;-70
2022/06/17 00:49:06;;;;;;;;;;;;;;;;;;5044388;28;20083;-69
2022/06/17 00:51:35;;;;;;;10.65;9.27;;;;;;;;;;5046412;28;19920;-67
2022/06/17 00:54:22;;;;;;;14.10;9.85;;;;;;;;;;5051623;28;20013;-70
2022/06/17 00:56:47;;;;;;;12.77;9.23;;;;;;;;;;5042478;28;20029;-70
2022/06/17 00:59:13;;;;;;;14.20;9.48;;;;;;;;;;5045426;28;20490;-70
2022/06/17 01:01:42;;;;;;;12.68;9.25;;;;;;;;;;5044535;28;20025;-70
2022/06/17 01:04:10;;;;;;;9.95;8.80;;;;;;;;;;5047023;28;20025;-70
2022/06/17 01:06:36;;;;;;;10.20;8.68;;;;;;;;;;5047835;28;20025;-70
2022/06/17 01:11:51;;;;;;;10.15;8.75;;;;;;;;;;5048767;28;20082;-70
2022/06/17 01:14:18;;;;;;;13.60;8.98;;;;;;;;;;5023599;28;20021;-70
2022/06/17 01:16:44;;;;;;;12.85;8.70;;;;;;;;;;5044337;28;20017;-70
2022/06/17 01:19:32;;;;;;;8.85;7.95;;;;;;;;;;5029841;28;20021;-70
2022/06/17 01:22:08;;;;;;;10.70;8.27;;;;;;;;;;5040645;28;20454;-70
2022/06/17 01:24:33;;;;;;;11.57;9.13;;;;;;;;;;5030065;28;20028;-70
2022/06/17 01:26:58;;;;;;;10.55;8.25;;;;;;;;;;5048040;28;20032;-70
2022/06/17 01:29:24;;;;;;;11.98;8.68;;;;;;;;;;5031531;28;20508;-70
2022/06/17 01:31:51;;;;;;;12.40;8.80;;;;;;;;;;5048461;28;20471;-70
2022/06/17 01:34:18;;;;;;;12.60;9.50;;;;;;;;;;5046617;28;20025;-70
2022/06/17 01:36:44;;;;;;;17.42;10.70;;;;;;;;;;5048308;28;20009;-70
2022/06/17 01:39:11;;;;;;;13.60;10.48;;;;;;;;;;5039177;28;20063;-70
2022/06/17 01:41:37;;;;;;;15.90;10.07;;;;;;;;;;5043435;28;20472;-70
2022/06/17 01:44:13;;;;;;;14.10;10.75;;;;;;;;;;5047487;28;20092;-70
2022/06/17 01:46:42;;;;;;;11.77;9.88;;;;;;;;;;5047692;28;20274;-70
2022/06/17 01:49:17;;;;;;;12.27;9.23;;;;;;;;;;5046057;28;20061;-70
2022/06/17 01:51:46;;;;;;;11.65;9.40;;;;;;;;;;5046614;28;20025;-70
2022/06/17 01:54:20;;;;;;;15.68;10.00;;;;;;;;;;5048329;28;20024;-70
2022/06/17 01:56:48;;;;;;;12.10;9.63;;;;;;;;;;5049180;28;20024;-70
2022/06/17 01:59:16;;;;;;;12.30;9.02;;;;;;;;;;5048321;28;20024;-70
2022/06/17 02:01:43;;;;;;;14.13;9.80;;;;;;;;;;5038820;28;20051;-70
2022/06/17 02:04:11;;;;;;;15.45;10.07;;;;;;;;;;5045124;28;20020;-70
2022/06/17 02:06:46;;;;;;;15.02;9.70;;;;;;;;;;5046736;28;20091;-70
2022/06/17 02:09:11;;;;;;;11.68;9.98;;;;;;;;;;5045058;28;20035;-70
2022/06/17 02:11:37;;;;;;;24.33;11.30;;;;;;;;;;5047240;28;20020;-70
2022/06/17 02:14:06;;;;;;;14.05;10.30;;;;;;;;;;5046734;28;20029;-70
2022/06/17 02:16:32;;;;;;;13.10;10.40;;;;;;;;;;5043594;28;20418;-70
2022/06/17 02:19:00;;;;;;;12.23;9.73;;;;;;;;;;5046897;28;20020;-70
2022/06/17 02:21:32;;;;;;;14.77;10.23;;;;;;;;;;5040118;28;20044;-70
2022/06/17 02:23:58;;;;;;;19.17;11.98;;;;;;;;;;5045493;28;20423;-70
2022/06/17 02:26:24;;;;;;;14.20;10.18;;;;;;;;;;5048609;28;20027;-71
2022/06/17 02:28:49;;;;;;;14.33;11.33;;;;;;;;;;5040717;28;20379;-71
2022/06/17 02:31:15;;;;;;;19.02;11.20;;;;;;;;;;5043344;28;20280;-71
2022/06/17 02:33:41;;;;;;;17.10;12.60;;;;;;;;;;5030555;28;20052;-73
2022/06/17 02:36:06;;;;;;;14.75;11.77;;;;;;;;;;5019505;28;20025;-69
2022/06/17 02:38:33;;;;;;;16.02;11.40;;;;;;;;;;5040842;28;20025;-70
2022/06/17 02:41:01;;;;;;;19.63;12.05;;;;;;;;;;5040494;28;20021;-70
2022/06/17 02:43:28;;;;;;;15.35;12.43;;;;;;;;;;5040110;28;20060;-68
2022/06/17 02:45:57;;;;;;;15.98;12.32;;;;;;;;;;5037996;28;20102;-69
2022/06/17 02:48:26;;;;;;;14.82;11.50;;;;;;;;;;5040568;28;20035;-70
2022/06/17 02:50:52;;;;;;;15.48;11.43;;;;;;;;;;5038104;28;20033;-70
2022/06/17 02:53:20;;;;;;;17.63;11.27;;;;;;;;;;5035423;28;20039;-70
2022/06/17 02:55:46;;;;;;;15.80;10.07;;;;;;;;;;5037843;28;20033;-70
2022/06/17 02:58:21;;;;;;;14.80;11.18;;;;;;;;;;5032124;28;20025;-70
2022/06/17 03:00:46;;;;;;;13.65;10.13;;;;;;;;;;5035037;28;20416;-70
2022/06/17 03:03:14;;;;;;;12.68;9.95;;;;;;;;;;5034565;28;20028;-70
2022/06/17 03:05:41;;;;;;;13.45;11.10;;;;;;;;;;5037792;28;20372;-70
2022/06/17 03:08:19;;;;;;;18.15;11.68;;;;;;;;;;5033437;28;20028;-70
2022/06/17 03:10:44;;;;;;;16.35;11.25;;;;;;;;;;5033325;28;20032;-70
2022/06/17 03:13:13;;;;;;;14.57;11.48;;;;;;;;;;5035856;28;20028;-70
2022/06/17 03:15:40;;;;;;;16.75;12.15;;;;;;;;;;5034022;28;20031;-70
2022/06/17 03:18:05;;;;;;;14.25;11.20;;;;;;;;;;5035200;28;20082;-70
2022/06/17 03:20:34;;;;;;;15.25;12.63;;;;;;;;;;5036036;28;20471;-70
2022/06/17 03:23:03;;;;;;;19.80;13.30;;;;;;;;;;5035610;28;20056;-70
2022/06/17 03:25:50;;;;;;;18.15;13.85;;;;;;;;;;5034476;28;20052;-70
2022/06/17 03:28:18;;;;;;;17.92;13.30;;;;;;;;;;5031186;28;20342;-70
2022/06/17 03:30:48;;;;;;;15.65;11.52;;;;;;;;;;5036155;28;20036;-70
2022/06/17 03:33:17;;;;;;;18.63;13.10;;;;;;;;;;5033545;28;20032;-70
2022/06/17 03:35:43;;;;;;;16.25;12.82;;;;;;;;;;5032408;28;20092;-70
2022/06/17 03:38:30;;;;;;;18.80;13.02;;;;;;;;;;5031671;28;20032;-70
2022/06/17 03:40:58;;;;;;;17.20;12.80;;;;;;;;;;5031980;28;20112;-70
2022/06/17 03:43:29;;;;;;;17.83;14.70;;;;;;;;;;5034389;28;20021;-70
2022/06/17 03:46:02;;;;;;;19.38;13.25;;;;;;;;;;5028238;28;20021;-70
2022/06/17 03:48:33;;;;;;;16.25;13.20;;;;;;;;;;5031175;28;20022;-70
2022/06/17 03:50:58;;;;;;;18.67;12.82;;;;;;;;;;5031850;28;20044;-70
2022/06/17 03:53:28;;;;;;;17.30;13.77;;;;;;;;;;5031592;28;20063;-70
2022/06/17 03:55:54;;;;;;;17.35;13.73;;;;;;;;;;5032473;28;20262;-70
2022/06/17 03:58:20;;;;;;;24.88;15.20;;;;;;;;;;5030830;28;20021;-70
2022/06/17 04:00:56;;;;;;;26.55;15.40;;;;;;;;;;5034400;28;20032;-70
2022/06/17 04:03:25;;;;;;;19.50;14.90;;;;;;;;;;5033017;28;20044;-70
2022/06/17 04:06:09;;;;;;;20.67;15.20;;;;;;;;;;5032448;28;20029;-70
2022/06/17 04:08:49;;;;;;;21.42;16.67;;;;;;;;;;5033333;28;20113;-70
2022/06/17 04:11:14;;;;;;;22.80;16.13;;;;;;;;;;5032262;28;20034;-70
2022/06/17 04:13:40;;;;;;;23.65;15.98;;;;;;;;;;5033832;28;20036;-70
2022/06/17 04:16:22;;;;;;;18.25;14.52;;;;;;;;;;5010478;28;20025;-70
2022/06/17 04:18:47;;;;;;;20.52;15.52;;;;;;;;;;5029391;28;20050;-70
2022/06/17 04:21:13;;;;;;;21.87;16.00;;;;;;;;;;5036025;28;20483;-70
2022/06/17 04:23:38;;;;;;;21.17;15.82;;;;;;;;;;5039085;28;20024;-70
2022/06/17 04:26:13;;;;;;;21.42;15.13;;;;;;;;;;5037066;28;20028;-70
2022/06/17 04:28:40;;;;;;;22.50;16.52;;;;;;;;;;5038219;28;20025;-70
2022/06/17 04:31:09;;;;;;;23.55;16.65;;;;;;;;;;5035810;28;20057;-70
2022/06/17 04:33:53;;;;;;;20.13;15.85;;;;;;;;;;5033328;28;20384;-70
2022/06/17 04:36:24;;;;;;;24.95;16.98;;;;;;;;;;5034836;28;20067;-70
2022/06/17 04:38:55;;;;;;;24.27;16.80;;;;;;;;;;5034087;28;20030;-70
2022/06/17 04:41:21;;;;;;;24.95;16.50;;;;;;;;;;5033779;28;20071;-71
2022/06/17 04:43:47;;;;;;;24.67;16.63;;;;;;;;;;5036167;28;20343;-71
2022/06/17 04:46:13;;;;;;;22.17;15.80;;;;;;;;;;5031247;28;20076;-71
2022/06/17 04:48:38;;;;;;;24.55;16.92;;;;;;;;;;5032238;28;20619;-71
2022/06/17 04:51:04;;;;;;;18.25;16.10;;;;;;;;;;5033957;28;20029;-71
2022/06/17 04:53:30;;;;;;;26.60;17.50;;;;;;;;;;5037569;28;20490;-71
2022/06/17 04:55:55;;;;;;;21.05;17.92;;;;;;;;;;5037219;28;20017;-71
2022/06/17 04:58:23;;;;;;;22.88;17.77;;;;;;;;;;5039834;28;20058;-71
2022/06/17 05:00:51;;;;;;;21.55;16.85;;;;;;;;;;5042762;28;20016;-71
2022/06/17 05:03:17;;;;;;;20.95;17.08;;;;;;;;;;5040458;28;20475;-71
2022/06/17 05:05:43;;;;;;;22.45;16.83;;;;;;;;;;5044312;28;20029;-71
2022/06/17 05:08:31;;;;;;;23.63;17.55;;;;;;;;;;5039951;28;20025;-71
2022/06/17 05:11:06;;;;;;;20.17;16.65;;;;;;;;;;5031249;28;20124;-72
2022/06/17 05:13:31;;;;;;;23.17;17.10;;;;;;;;;;5046183;28;20025;-71
2022/06/17 05:15:57;;;;;;;18.67;16.10;;;;;;;;;;5039414;28;20375;-72
2022/06/17 05:18:22;;;;;;;22.10;16.25;;;;;;;;;;5038888;28;20029;-72
2022/06/17 05:20:47;;;;;;;18.15;14.88;;;;;;;;;;5038790;28;20422;-72
2022/06/17 05:23:14;;;;;;;20.85;15.82;;;;;;;;;;5043015;28;20036;-72
2022/06/17 05:25:40;;;;;;;19.55;15.50;;;;;;;;;;5045297;28;20024;-72
2022/06/17 05:28:07;;;;;;;21.50;16.67;;;;;;;;;;5040103;28;20041;-70
2022/06/17 05:30:37;;;;;;;23.88;16.92;;;;;;;;;;5036877;28;20460;-70
2022/06/17 05:33:02;;;;;;;19.63;16.15;;;;;;;;;;5040505;28;20770;-70
2022/06/17 05:35:27;;;;;;;20.88;16.73;;;;;;;;;;5042297;28;20100;-69
2022/06/17 05:37:53;;;;;;;26.77;17.43;;;;;;;;;;5044907;28;20659;-69
2022/06/17 05:40:18;;;;;;;22.33;17.33;;;;;;;;;;5024624;28;20277;-70
2022/06/17 05:42:44;;;;;;;18.50;15.60;;;;;;;;;;5045059;28;20017;-72
2022/06/17 05:45:23;;;;;;;24.73;15.45;;;;;;;;;;5043588;28;20021;-71
2022/06/17 05:47:48;;;;;;;19.10;14.93;;;;;;;;;;5043174;28;20051;-66
2022/06/17 05:50:15;;;;;;;18.23;13.55;;;;;;;;;;5040054;28;20447;-71
2022/06/17 05:52:47;;;;;;;18.27;13.00;;;;;;;;;;5042924;28;20736;-71
2022/06/17 05:55:13;;;;;;;15.95;12.75;;;;;;;;;;5029045;28;20377;-74
2022/06/17 05:57:38;;;;;;;14.27;11.20;;;;;;;;;;5044019;28;20061;-70
2022/06/17 06:00:03;;;;;;;19.20;12.37;;;;;;;;;;5027273;28;20017;-71
2022/06/17 06:02:28;;;;;;;15.05;11.80;;;;;;;;;;5044370;28;20494;-71
2022/06/17 06:04:53;;;;;;;16.15;12.73;;;;;;;;;;5043163;28;20025;-72
2022/06/17 06:07:19;;;;;;;15.40;13.03;;;;;;;;;;5043496;28;20036;-72
2022/06/17 06:09:44;;;;;;;16.08;12.07;;;;;;;;;;5043746;28;20577;-72
2022/06/17 06:12:09;;;;;;;15.95;12.52;;;;;;;;;;5048348;28;20032;-72
2022/06/17 06:14:34;;;;;;;18.65;13.07;;;;;;;;;;5042525;28;20095;-70
2022/06/17 06:17:00;;;;;;;16.95;12.25;;;;;;;;;;5037647;28;20067;-73
2022/06/17 06:19:25;;;;;;;18.90;12.15;;;;;;;;;;5038805;28;20017;-73
2022/06/17 06:21:50;;;;;;;14.27;11.63;;;;;;;;;;5042034;28;20487;-72
2022/06/17 06:24:15;;;;;;;17.80;11.90;;;;;;;;;;5042623;28;20036;-71
2022/06/17 06:26:40;;;;;;;15.10;11.43;;;;;;;;;;5041806;28;20466;-73
2022/06/17 06:29:06;;;;;;;17.55;11.77;;;;;;;;;;5051241;28;20392;-72
2022/06/17 06:31:33;;;;;;;14.57;10.65;;;;;;;;;;5046024;28;20774;-71
2022/06/17 06:33:58;;;;;;;16.15;11.25;;;;;;;;;;5042674;28;20029;-72
2022/06/17 06:36:23;;;;;;;18.33;11.63;;;;;;;;;;5039690;28;20052;-72
2022/06/17 06:38:48;;;;;;;17.38;10.18;;;;;;;;;;5048545;28;20674;-72
2022/06/17 06:41:14;;;;;;;19.50;11.57;;;;;;;;;;5045073;28;20171;-72
2022/06/17 06:43:39;;;;;;;14.52;10.85;;;;;;;;;;5047821;28;20032;-71
2022/06/17 06:46:06;;;;;;;14.20;10.93;;;;;;;;;;5044537;28;20032;-71
2022/06/17 06:48:31;;;;;;;13.82;11.40;;;;;;;;;;5044483;28;20460;-69
2022/06/17 06:50:56;;;;;;;16.73;9.97;;;;;;;;;;5042339;28;20086;-72
2022/06/17 06:53:21;;;;;;;12.30;9.83;;;;;;;;;;5042612;28;20052;-72
2022/06/17 06:55:48;;;;;;;11.30;9.27;;;;;;;;;;5038019;28;20270;-71
2022/06/17 06:58:17;;;;;;;14.32;8.93;;;;;;;;;;5035563;28;20261;-71
2022/06/17 07:00:44;;;;;;;13.60;9.05;;;;;;;;;;5035396;28;20027;-70
2022/06/17 07:03:10;;;;;;;11.25;8.23;;;;;;;;;;5036734;28;20028;-72
2022/06/17 07:05:36;;;;;;;13.23;9.25;;;;;;;;;;5035973;28;20037;-71
2022/06/17 07:08:02;;;;;;;11.80;8.05;;;;;;;;;;5038058;28;20036;-74
2022/06/17 07:10:29;;;;;;;12.35;7.75;;;;;;;;;;5035636;28;20028;-71
2022/06/17 07:12:54;;;;;;;10.85;7.70;;;;;;;;;;5035345;28;20131;-71
2022/06/17 07:15:20;;;;;;;8.25;7.22;;;;;;;;;;5033842;28;20031;-74
2022/06/17 07:17:52;;;;;;;11.48;7.63;;;;;;;;;;5036151;28;20029;-73
2022/06/17 07:20:18;;;;;;;10.80;8.65;;;;;;;;;;5034707;28;20023;-73
2022/06/17 07:22:43;;;;;;;12.95;7.75;;;;;;;;;;5032450;28;20037;-73
2022/06/17 07:25:08;;;;;;;10.07;7.47;;;;;;;;;;5032576;28;20082;-70
2022/06/17 07:27:33;;;;;;;12.93;8.18;;;;;;;;;;5035981;28;20040;-73
2022/06/17 07:29:58;;;;;;;12.47;7.77;;;;;;;;;;5034149;28;20029;-74
2022/06/17 07:32:23;;;;;;;13.57;7.63;;;;;;;;;;5035603;28;20043;-74
2022/06/17 07:34:49;;;;;;;11.90;7.43;;;;;;;;;;5034778;28;20051;-71
2022/06/17 07:39:58;;;;;;;15.13;7.65;;;;;;;;;;5035064;28;20261;-72
2022/06/17 07:42:37;;;;;;;9.52;7.45;;;;;;;;;;5039000;28;20109;-71
2022/06/17 07:45:02;;;;;;;9.40;6.57;;;;;;;;;;5047535;28;20111;-73
2022/06/17 07:47:27;;;;;;;10.10;6.80;;;;;;;;;;5041808;28;20044;-74
2022/06/17 07:49:52;;;;;;;12.82;7.88;;;;;;;;;;5040773;28;20041;-74
2022/06/17 07:52:17;;;;;;;14.63;7.63;;;;;;;;;;5039549;28;20112;-72
2022/06/17 07:54:43;;;;;;;9.67;7.03;;;;;;;;;;5035579;28;20048;-71
2022/06/17 07:57:10;;;;;;;10.07;7.27;;;;;;;;;;5036543;28;20033;-73
2022/06/17 07:59:35;;;;;;;9.95;6.75;;;;;;;;;;5038188;28;20307;-71
2022/06/17 08:02:00;;;;;;;9.37;8.30;;;;;;;;;;5040442;28;20457;-72
2022/06/17 08:04:27;;;;;;;10.10;7.93;;;;;;;;;;5041396;28;20342;-72
2022/06/17 08:06:53;;;;;;;13.77;8.20;;;;;;;;;;5038844;28;20660;-72
2022/06/17 08:09:19;;;;;;;14.52;7.55;;;;;;;;;;5029056;28;20068;-70
2022/06/17 08:11:45;;;;;;;9.50;7.43;;;;;;;;;;5040360;28;20027;-72
2022/06/17 08:14:10;;;;;;;11.40;6.70;;;;;;;;;;5038003;28;20020;-72
2022/06/17 08:16:37;;;;;;;9.65;6.60;;;;;;;;;;5042541;28;20067;-71
2022/06/17 08:19:04;;;;;;;9.35;7.05;;;;;;;;;;5038523;28;20025;-77
2022/06/17 08:21:29;;;;;;;11.88;7.07;;;;;;;;;;5038065;28;20369;-78
2022/06/17 08:23:54;;;;;;;11.70;8.20;;;;;;;;;;5040873;28;20017;-73
2022/06/17 08:26:20;;;;;;;10.52;6.97;;;;;;;;;;5037402;28;20034;-72
2022/06/17 08:28:45;;;;;;;6.93;6.30;;;;;;;;;;5040507;28;20095;-73
2022/06/17 08:31:10;;;;;;;8.65;6.75;;;;;;;;;;5042601;28;20024;-74
2022/06/17 08:33:35;;;;;;;12.93;6.70;;;;;;;;;;5043030;28;20108;-72
2022/06/17 08:36:04;;;;;;;9.60;7.03;;;;;;;;;;5045924;28;20509;-72
2022/06/17 08:38:31;;;;;;;10.98;7.13;;;;;;;;;;5048761;28;20057;-74
2022/06/17 08:40:58;;;;;;;8.80;6.18;;;;;;;;;;5040518;28;20032;-75
2022/06/17 08:43:42;;;;;;;8.90;6.32;;;;;;;;;;5042079;28;20053;-75
2022/06/17 08:46:07;;;;;;;;;;;;;;;;;;5042489;28;20036;-73
2022/06/17 08:48:44;;;;;;;8.90;6.05;;;;;;;;;;5041560;28;19912;-77
2022/06/17 08:51:15;;;;;;;7.45;5.57;;;;;;;;;;5042717;28;20459;-70
2022/06/17 08:53:41;;;;;;;9.88;6.40;;;;;;;;;;5027134;28;20017;-73
2022/06/17 08:56:12;;;;;;;8.50;5.80;;;;;;;;;;5043815;28;21235;-78
2022/06/17 08:58:47;;;;;;;9.00;5.70;;;;;;;;;;5023911;28;20064;-74
2022/06/17 09:01:18;;;;;;;10.63;6.68;;;;;;;;;;5021591;28;20025;-74
2022/06/17 09:03:54;;;;;;;11.60;6.32;;;;;;;;;;5042100;28;20017;-74
2022/06/17 09:06:38;;;;;;;7.70;6.40;;;;;;;;;;5039420;28;20021;-75
2022/06/17 09:09:03;;;;;;;;;;;;;;;;;;5048094;28;20478;-74
2022/06/17 09:11:28;;;;;;;10.85;6.25;;;;;;;;;;5046870;28;19970;-76
2022/06/17 09:14:06;;;;;;;8.85;6.18;;;;;;;;;;5044579;28;20063;-80
2022/06/17 09:16:40;;;;;;;8.82;6.15;;;;;;;;;;5047384;28;20029;-73
2022/06/17 09:19:06;;;;;;;7.65;5.80;;;;;;;;;;5045913;28;20017;-75
2022/06/17 09:21:39;;;;;;;9.55;6.30;;;;;;;;;;5044741;28;20390;-76
2022/06/17 09:24:06;;;;;;;10.63;5.83;;;;;;;;;;5042843;28;20071;-77
2022/06/17 09:26:35;;;;;;;11.55;5.85;;;;;;;;;;5044127;28;20032;-76
2022/06/17 09:29:09;;;;;;;7.07;4.93;;;;;;;;;;5045489;28;20033;-84
2022/06/17 09:31:36;;;;;;;8.27;5.25;;;;;;;;;;5043792;28;20025;-78
2022/06/17 09:34:12;;;;;;;10.00;5.88;;;;;;;;;;5043164;28;20036;-81
2022/06/17 09:36:43;;;;;;;8.15;6.10;;;;;;;;;;5036092;28;20066;-71
2022/06/17 09:39:11;;;;;;;6.30;5.28;;;;;;;;;;5039145;28;20020;-75
2022/06/17 09:41:46;;;;;;;7.15;4.72;;;;;;;;;;5046415;28;20013;-76
2022/06/17 09:44:18;;;;;;;7.93;6.15;;;;;;;;;;5043820;28;20021;-75
2022/06/17 09:46:46;;;;;;;8.00;5.10;;;;;;;;;;5024737;28;20032;-75
2022/06/17 09:49:23;;;;;;;11.10;4.93;;;;;;;;;;5041476;28;20409;-75
2022/06/17 09:51:50;;;;;;;9.02;4.45;;;;;;;;;;5040482;28;20107;-77
2022/06/17 09:54:21;;;;;;;7.35;4.60;;;;;;;;;;5040067;28;20144;-75
2022/06/17 09:57:07;;;;;;;7.38;4.13;;;;;;;;;;5042462;28;20021;-84
2022/06/17 09:59:39;;;;;;;6.72;4.18;;;;;;;;;;5023079;28;20029;-74
2022/06/17 10:02:17;;;;;;;5.75;4.18;;;;;;;;;;5036481;28;20060;-79
2022/06/17 10:04:42;;;;;;;8.07;5.40;;;;;;;;;;5023702;28;20036;-85
2022/06/17 10:07:14;;;;;;;7.10;4.17;;;;;;;;;;5044080;28;20029;-73
2022/06/17 10:09:52;;;;;;;5.13;4.13;;;;;;;;;;5040392;28;20037;-81
2022/06/17 10:12:24;;;;;;;12.82;5.85;;;;;;;;;;5040004;28;20067;-77
2022/06/17 10:14:52;;;;;;;5.35;4.20;;;;;;;;;;5039043;28;20029;-79
2022/06/17 10:20:30;;;;;;;9.10;5.03;;;;;;;;;;5039325;28;20470;-77
2022/06/17 10:23:01;;;;;;;10.80;6.40;;;;;;;;;;5038051;28;22130;-77
2022/06/17 10:25:35;;;;;;;10.38;6.20;;;;;;;;;;5043064;28;20029;-75
2022/06/17 10:28:09;;;;;;;6.88;5.57;;;;;;;;;;5043821;28;20482;-76
2022/06/17 10:30:38;;;;;;;13.52;6.85;;;;;;;;;;5038929;28;20029;-77
2022/06/17 10:33:04;;;;;;;14.00;8.30;;;;;;;;;;5040718;28;20067;-83
2022/06/17 10:35:30;;;;;;;13.55;9.50;;;;;;;;;;5022335;28;20139;-74
2022/06/17 10:37:58;;;;;;;12.73;7.60;;;;;;;;;;5038584;28;20024;-75
2022/06/17 10:40:24;;;;;;;9.20;6.72;;;;;;;;;;5042002;28;20549;-84
2022/06/17 10:42:52;;;;;;;14.43;7.35;;;;;;;;;;5021711;28;20021;-77
2022/06/17 10:45:18;;;;;;;11.63;7.15;;;;;;;;;;5036536;28;20064;-74
2022/06/17 10:47:52;;;;;;;13.68;6.93;;;;;;;;;;5039816;28;20053;-74
2022/06/17 10:50:19;;;;;;;9.40;6.85;;;;;;;;;;5025983;28;20115;-75
2022/06/17 10:53:07;;;;;;;11.52;5.75;;;;;;;;;;5038004;28;20031;-73
2022/06/17 10:55:38;;;;;;;12.73;6.45;;;;;;;;;;5040376;28;20072;-73
2022/06/17 10:58:08;;;;;;;9.18;6.00;;;;;;;;;;5038963;28;20029;-77
2022/06/17 11:00:40;;;;;;;11.65;7.10;;;;;;;;;;5040659;28;20356;-75
2022/06/17 11:03:34;;;;;;;16.50;8.25;;;;;;;;;;5037692;28;20135;-73
2022/06/17 11:06:00;;;;;;;12.07;6.03;;;;;;;;;;5019116;28;20044;-77
2022/06/17 11:08:28;;;;;;;9.93;6.13;;;;;;;;;;5036794;28;20024;-74
2022/06/17 11:10:54;;;;;;;8.10;5.47;;;;;;;;;;5036782;28;20029;-71
2022/06/17 11:13:19;;;;;;;10.65;7.07;;;;;;;;;;5037115;28;20021;-79
2022/06/17 11:15:46;;;;;;;11.85;7.40;;;;;;;;;;5040496;28;20397;-76
2022/06/17 11:18:17;;;;;;;8.10;5.97;;;;;;;;;;5020803;28;20022;-80
2022/06/17 11:20:51;;;;;;;11.00;6.40;;;;;;;;;;5039123;28;20530;-74
2022/06/17 11:23:19;;;;;;;10.10;7.35;;;;;;;;;;5033499;28;20091;-77
2022/06/17 11:25:46;;;;;;;10.52;6.78;;;;;;;;;;5038395;28;20063;-76
2022/06/17 11:28:18;;;;;;;14.50;6.18;;;;;;;;;;5041148;28;20486;-76
2022/06/17 11:31:12;;;;;;;11.18;6.78;;;;;;;;;;5038201;28;20576;-73
2022/06/17 11:33:40;;;;;;;8.77;6.97;;;;;;;;;;5024320;28;20044;-76
2022/06/17 11:36:16;;;;;;;12.63;8.18;;;;;;;;;;5033642;28;20139;-75
2022/06/17 11:38:41;;;;;;;10.43;6.38;;;;;;;;;;5041469;28;20474;-78
2022/06/17 11:41:07;;;;;;;16.17;8.45;;;;;;;;;;5025122;28;20021;-72
2022/06/17 11:43:41;;;;;;;9.35;6.70;;;;;;;;;;5023778;28;20036;-75
2022/06/17 11:46:32;;;;;;;10.15;6.47;;;;;;;;;;5038633;28;20182;-79
2022/06/17 11:48:59;;;;;;;12.18;7.53;;;;;;;;;;5028077;28;20036;-78
2022/06/17 11:51:29;;;;;;;10.27;5.60;;;;;;;;;;5040023;28;20040;-73
2022/06/17 11:53:56;;;;;;;7.05;4.90;;;;;;;;;;5031710;28;20017;-71
2022/06/17 11:56:32;;;;;;;9.02;5.63;;;;;;;;;;5039434;28;20056;-74
2022/06/17 11:59:00;;;;;;;8.55;6.30;;;;;;;;;;5035825;28;20036;-73
2022/06/17 12:01:25;;;;;;;9.90;6.45;;;;;;;;;;5044864;28;20487;-79
2022/06/17 12:03:50;;;;;;;10.00;5.70;;;;;;;;;;5039529;28;20070;-75
2022/06/17 12:06:21;;;;;;;7.83;5.20;;;;;;;;;;5044797;28;20024;-79
2022/06/17 12:08:48;;;;;;;8.35;4.75;;;;;;;;;;5037405;28;20308;-74
2022/06/17 12:11:16;;;;;;;9.25;5.00;;;;;;;;;;5030851;28;20116;-79
2022/06/17 12:13:47;;;;;;;9.60;4.68;;;;;;;;;;5042700;28;20029;-76
2022/06/17 12:16:19;;;;;;;5.57;4.70;;;;;;;;;;5043546;28;20025;-75
2022/06/17 12:18:46;;;;;;;7.55;4.55;;;;;;;;;;5047422;28;20031;-76
2022/06/17 12:21:11;;;;;;;10.57;4.18;;;;;;;;;;5042801;28;20025;-75
2022/06/17 12:23:40;;;;;;;7.88;4.20;;;;;;;;;;5038894;28;20032;-74
2022/06/17 12:26:10;;;;;;;8.85;5.30;;;;;;;;;;5022760;28;20500;-76
2022/06/17 12:28:41;;;;;;;7.22;4.43;;;;;;;;;;5039167;28;20052;-78
2022/06/17 12:31:18;;;;;;;5.00;3.78;;;;;;;;;;5041962;28;20108;-77
2022/06/17 12:33:48;;;;;;;5.32;4.18;;;;;;;;;;5040944;28;20402;-74
2022/06/17 12:36:26;;;;;;;6.25;3.50;;;;;;;;;;5042380;28;20071;-74
2022/06/17 12:38:54;;;;;;;2.72;2.50;;;;;;;;;;5047886;28;20479;-76
2022/06/17 12:41:38;;;;;;;6.13;2.90;;;;;;;;;;5040305;28;20024;-74
2022/06/17 12:44:25;;;;;;;6.93;3.10;;;;;;;;;;5045901;28;20095;-76
2022/06/17 12:46:57;;;;;;;4.28;2.63;;;;;;;;;;5025278;28;20052;-75
2022/06/17 12:55:17;;;;;;;4.90;2.45;;;;;;;;;;5042949;28;20044;-73
2022/06/17 12:57:48;;;;;;;6.40;2.83;;;;;;;;;;5039002;28;20056;-76
2022/06/17 13:00:13;;;;;;;3.88;2.22;;;;;;;;;;5036142;28;20021;-72
2022/06/17 13:02:47;;;;;;;3.40;2.90;;;;;;;;;;5042874;28;20110;-74
2022/06/17 13:05:36;;;;;;;3.08;2.10;;;;;;;;;;5041140;28;20265;-74
2022/06/17 13:08:05;;;;;;;2.97;2.40;;;;;;;;;;5021485;28;20029;-76
2022/06/17 13:10:40;;;;;;;4.43;2.72;;;;;;;;;;5041418;28;21419;-74
2022/06/17 13:13:24;;;;;;;8.75;2.83;;;;;;;;;;5024350;28;20025;-76
2022/06/17 13:15:57;;;;;;;5.90;2.60;;;;;;;;;;5027898;28;20449;-76
2022/06/17 13:18:28;;;;;;;9.18;2.50;;;;;;;;;;5039815;28;20493;-74
2022/06/17 13:20:56;;;;;;;5.20;2.53;;;;;;;;;;5036816;28;20112;-73
2022/06/17 13:23:40;;;;;;;7.25;3.00;;;;;;;;;;5035654;28;20682;-73
2022/06/17 13:26:32;;;;;;;4.07;2.70;;;;;;;;;;5043722;28;20021;-74
2022/06/17 13:29:17;;;;;;;5.20;2.28;;;;;;;;;;5034343;28;20060;-75
2022/06/17 13:31:48;;;;;;;3.60;2.58;;;;;;;;;;5040732;28;20083;-72
2022/06/17 13:34:19;;;;;;;3.92;1.92;;;;;;;;;;5028045;28;20383;-73
2022/06/17 13:36:54;;;;;;;2.05;1.75;;;;;;;;;;5042776;28;20040;-73
2022/06/17 13:39:25;;;;;;;3.90;2.05;;;;;;;;;;5038966;28;20024;-72
2022/06/17 13:42:00;;;;;;;2.70;2.00;;;;;;;;;;5033646;28;20543;-73
2022/06/17 13:44:44;;;;;;;2.13;1.95;;;;;;;;;;5045531;28;20286;-73
2022/06/17 13:47:13;;;;;;;2.42;2.05;;;;;;;;;;5041577;28;20374;-72
2022/06/17 13:49:42;;;;;;;2.95;1.90;;;;;;;;;;5042701;28;20032;-73
2022/06/17 13:52:15;;;;;;;4.15;2.13;;;;;;;;;;5042017;28;20048;-74
2022/06/17 13:54:46;;;;;;;4.72;2.55;;;;;;;;;;5041544;28;20124;-72
2022/06/17 13:57:14;;;;;;;4.68;2.17;;;;;;;;;;5046218;28;20020;-71
2022/06/17 13:59:42;;;;;;;1.92;1.80;;;;;;;;;;5038868;28;20025;-72
2022/06/17 14:02:13;;;;;;;2.67;2.20;;;;;;;;;;5039941;28;20553;-74
2022/06/17 14:05:01;;;;;;;5.07;2.30;;;;;;;;;;5044756;28;20055;-72
2022/06/17 14:07:44;;;;;;;4.25;2.13;;;;;;;;;;5005775;28;20068;-73
2022/06/17 14:10:26;;;;;;;3.70;2.00;;;;;;;;;;5043805;28;20025;-73
2022/06/17 14:12:51;;;;;;;2.58;1.80;;;;;;;;;;5040374;28;20033;-72
2022/06/17 14:15:18;;;;;;;4.38;2.40;;;;;;;;;;5024904;28;20716;-72
2022/06/17 14:17:46;;;;;;;3.72;2.35;;;;;;;;;;5027151;28;20032;-73
2022/06/17 14:20:26;;;;;;;3.75;2.22;;;;;;;;;;5039398;28;20125;-79
2022/06/17 14:23:20;;;;;;;9.07;2.33;;;;;;;;;;5041022;28;20025;-74
2022/06/17 14:25:47;;;;;;;3.25;2.20;;;;;;;;;;5030189;28;20183;-76
2022/06/17 14:28:28;;;;;;;4.32;1.95;;;;;;;;;;5042463;28;20143;-72
2022/06/17 14:31:07;;;;;;;7.72;2.33;;;;;;;;;;5020868;28;20446;-74
2022/06/17 14:33:41;;;;;;;3.72;2.03;;;;;;;;;;5041574;28;20049;-75
2022/06/17 14:36:14;;;;;;;6.55;2.38;;;;;;;;;;5025895;28;20024;-74
2022/06/17 14:38:43;;;;;;;3.63;2.20;;;;;;;;;;5040090;28;20036;-75
2022/06/17 14:44:13;;;;;;;3.58;2.20;;;;;;;;;;5038205;28;20086;-79
2022/06/17 14:46:57;;;;;;;6.50;2.50;;;;;;;;;;5027443;28;20383;-74
2022/06/17 14:49:41;;;;;;;8.88;2.40;;;;;;;;;;5026888;28;20071;-73
2022/06/17 14:52:21;;;;;;;5.80;2.30;;;;;;;;;;5041473;28;20047;-74
2022/06/17 14:54:55;;;;;;;3.58;2.10;;;;;;;;;;5037829;28;20013;-73
2022/06/17 14:57:23;;;;;;;2.22;1.90;;;;;;;;;;5026224;28;20017;-73
2022/06/17 14:59:48;;;;;;;4.90;2.20;;;;;;;;;;5026452;28;20017;-74
2022/06/17 15:02:19;;;;;;;3.20;1.90;;;;;;;;;;5043105;28;20160;-72
2022/06/17 15:04:44;;;;;;;1.75;1.65;;;;;;;;;;5046479;28;20021;-74